createdAt,value
2018-04-11T00:03:31.444Z,11.10
2018-04-11T00:07:34.112Z,11.00
2018-04-11T00:11:36.792Z,10.90
2018-04-11T00:15:40.297Z,10.90
2018-04-11T00:19:43.748Z,10.80
2018-04-11T00:23:46.533Z,10.70
2018-04-11T00:27:49.191Z,10.70
2018-04-11T00:31:51.853Z,10.60
2018-04-11T00:35:54.639Z,10.60
2018-04-11T00:39:57.302Z,10.50
2018-04-11T00:43:59.965Z,10.40
2018-04-11T00:48:02.625Z,10.30
2018-04-11T00:52:05.289Z,10.30
2018-04-11T00:56:07.966Z,10.20
2018-04-11T01:00:10.635Z,10.20
2018-04-11T01:04:13.292Z,10.10
2018-04-11T01:08:16.768Z,10.00
2018-04-11T01:12:19.435Z,10.00
2018-04-11T01:16:22.365Z,10.00
2018-04-11T01:20:25.796Z,9.90
2018-04-11T01:24:29.221Z,9.90
2018-04-11T01:28:31.901Z,9.80
2018-04-11T01:32:34.597Z,9.90
2018-04-11T01:36:37.331Z,9.80
2018-04-11T01:40:40.798Z,9.80
2018-04-11T01:44:43.537Z,9.70
2018-04-11T01:48:46.195Z,9.70
2018-04-11T01:52:48.870Z,9.70
2018-04-11T01:56:51.553Z,9.60
2018-04-11T02:00:54.200Z,9.60
2018-04-11T02:04:56.874Z,9.60
2018-04-11T02:08:59.550Z,9.60
2018-04-11T02:13:02.251Z,9.60
2018-04-11T02:17:04.925Z,9.50
2018-04-11T02:21:07.583Z,9.50
2018-04-11T02:25:10.245Z,9.50
2018-04-11T02:29:13.680Z,9.40
2018-04-11T02:33:16.409Z,9.40
2018-04-11T02:37:19.064Z,9.40
2018-04-11T02:41:21.723Z,9.40
2018-04-11T02:45:24.394Z,9.40
2018-04-11T02:49:27.081Z,9.30
2018-04-11T02:53:29.755Z,9.30
2018-04-11T02:57:32.440Z,9.20
2018-04-11T03:01:35.121Z,9.20
2018-04-11T03:05:37.789Z,11.40
2018-04-11T03:09:40.516Z,9.20
2018-04-11T03:13:43.182Z,9.20
2018-04-11T03:17:45.846Z,9.20
2018-04-11T03:21:48.620Z,9.20
2018-04-11T03:25:52.040Z,9.10
2018-04-11T03:29:54.730Z,9.10
2018-04-11T03:33:57.400Z,9.10
2018-04-11T03:38:00.809Z,9.10
2018-04-11T03:42:04.297Z,9.20
2018-04-11T03:46:07.809Z,9.10
2018-04-11T03:50:10.516Z,9.10
2018-04-11T03:54:13.915Z,9.20
2018-04-11T03:58:17.380Z,9.20
2018-04-11T04:02:20.064Z,9.10
2018-04-11T04:06:22.740Z,9.20
2018-04-11T04:10:25.416Z,9.20
2018-04-11T04:14:39.893Z,9.20
2018-04-11T04:23:20.358Z,9.20
2018-04-11T04:27:23.787Z,9.20
2018-04-11T04:31:26.464Z,9.20
2018-04-11T04:35:29.867Z,9.30
2018-04-11T04:39:32.590Z,9.20
2018-04-11T04:43:35.286Z,9.30
2018-04-11T04:47:37.957Z,9.30
2018-04-11T04:51:40.658Z,9.30
2018-04-11T04:55:43.344Z,9.30
2018-04-11T04:59:46.058Z,9.30
2018-04-11T05:03:48.784Z,9.30
2018-04-11T05:07:52.216Z,9.30
2018-04-11T05:11:54.941Z,9.20
2018-04-11T05:15:57.602Z,9.30
2018-04-11T05:20:00.358Z,9.30
2018-04-11T05:24:03.785Z,9.30
2018-04-11T05:28:06.440Z,9.20
2018-04-11T05:32:09.108Z,9.30
2018-04-11T05:36:11.784Z,9.20
2018-04-11T05:40:14.453Z,9.20
2018-04-11T05:44:17.127Z,9.30
2018-04-11T05:48:20.564Z,9.30
2018-04-11T05:52:23.232Z,9.30
2018-04-11T05:56:25.897Z,9.30
2018-04-11T06:00:29.318Z,9.40
2018-04-11T06:04:31.977Z,9.40
2018-04-11T06:08:34.635Z,9.50
2018-04-11T06:12:37.301Z,9.60
2018-04-11T06:16:39.977Z,9.60
2018-04-11T06:20:42.646Z,9.80
2018-04-11T06:24:46.080Z,10.00
2018-04-11T06:28:48.740Z,9.90
2018-04-11T06:32:52.381Z,10.10
2018-04-11T06:36:55.053Z,10.00
2018-04-11T06:40:58.501Z,10.10
2018-04-11T06:45:01.231Z,10.10
2018-04-11T06:49:03.852Z,10.20
2018-04-11T06:53:06.540Z,10.20
2018-04-11T06:57:09.244Z,10.20
2018-04-11T07:01:11.897Z,10.30
2018-04-11T07:05:14.585Z,10.30
2018-04-11T07:09:17.963Z,10.40
2018-04-11T07:13:20.610Z,10.40
2018-04-11T07:17:23.260Z,10.40
2018-04-11T07:21:25.916Z,10.50
2018-04-11T07:25:28.570Z,10.50
2018-04-11T07:29:31.174Z,10.60
2018-04-11T07:33:33.828Z,10.60
2018-04-11T07:37:37.352Z,10.60
2018-04-11T07:41:40.003Z,10.70
2018-04-11T07:45:42.613Z,10.70
2018-04-11T07:49:45.319Z,10.70
2018-04-11T07:53:47.971Z,10.70
2018-04-11T07:57:50.635Z,10.80
2018-04-11T08:01:53.248Z,10.80
2018-04-11T08:05:55.925Z,10.80
2018-04-11T08:09:58.590Z,10.80
2018-04-11T08:14:01.355Z,10.80
2018-04-11T08:18:04.001Z,10.80
2018-04-11T08:22:06.665Z,10.80
2018-04-11T08:26:09.394Z,10.90
2018-04-11T08:30:12.816Z,10.90
2018-04-11T08:34:16.233Z,10.90
2018-04-11T08:38:18.852Z,10.80
2018-04-11T08:42:22.024Z,11.00
2018-04-11T08:46:31.538Z,11.10
2018-04-11T08:50:34.656Z,11.20
2018-04-11T08:54:38.082Z,11.30
2018-04-11T08:58:40.695Z,11.30
2018-04-11T09:02:43.343Z,11.40
2018-04-11T09:06:45.997Z,11.40
2018-04-11T09:10:48.656Z,11.50
2018-04-11T09:14:51.323Z,11.60
2018-04-11T09:18:53.981Z,11.70
2018-04-11T09:22:57.403Z,12.00
2018-04-11T09:27:00.816Z,12.30
2018-04-11T09:31:03.480Z,12.20
2018-04-11T09:35:06.089Z,12.50
2018-04-11T09:39:08.744Z,12.60
2018-04-11T09:43:11.406Z,12.80
2018-04-11T09:47:14.057Z,13.00
2018-04-11T09:51:16.699Z,13.20
2018-04-11T09:55:19.312Z,13.40
2018-04-11T09:59:22.732Z,13.50
2018-04-11T10:03:26.157Z,13.60
2018-04-11T10:07:28.901Z,13.60
2018-04-11T10:11:31.561Z,13.80
2018-04-11T10:15:34.168Z,14.00
2018-04-11T10:19:36.817Z,14.10
2018-04-11T10:23:39.471Z,14.20
2018-04-11T10:27:42.879Z,14.30
2018-04-11T10:31:46.272Z,14.30
2018-04-11T10:35:49.769Z,14.30
2018-04-11T10:39:52.416Z,14.30
2018-04-11T10:43:55.063Z,14.40
2018-04-11T10:47:58.477Z,14.40
2018-04-11T10:52:01.867Z,14.40
2018-04-11T10:56:04.521Z,14.40
2018-04-11T11:00:07.213Z,14.50
2018-04-11T11:04:09.870Z,14.60
2018-04-11T11:08:12.612Z,14.70
2018-04-11T11:12:15.220Z,14.90
2018-04-11T11:16:18.653Z,15.00
2018-04-11T11:20:21.369Z,14.90
2018-04-11T11:24:24.013Z,15.10
2018-04-11T11:28:27.439Z,15.30
2018-04-11T11:32:30.056Z,15.20
2018-04-11T11:36:32.739Z,15.30
2018-04-11T11:40:35.402Z,15.50
2018-04-11T11:44:38.106Z,15.60
2018-04-11T11:48:40.719Z,15.70
2018-04-11T11:52:43.371Z,15.70
2018-04-11T11:56:46.023Z,15.80
2018-04-11T12:00:48.704Z,15.90
2018-04-11T12:04:51.352Z,15.90
2018-04-11T12:08:53.995Z,16.00
2018-04-11T12:12:56.644Z,16.10
2018-04-11T12:16:59.294Z,16.20
2018-04-11T12:21:01.944Z,16.30
2018-04-11T12:25:04.644Z,16.40
2018-04-11T12:29:07.291Z,16.40
2018-04-11T12:33:09.939Z,16.50
2018-04-11T12:37:12.619Z,16.50
2018-04-11T12:41:16.040Z,16.60
2018-04-11T12:45:19.412Z,16.60
2018-04-11T12:49:22.061Z,16.50
2018-04-11T12:53:24.743Z,16.60
2018-04-11T12:57:27.452Z,16.60
2018-04-11T13:01:30.104Z,16.60
2018-04-11T13:05:32.711Z,16.70
2018-04-11T13:09:35.368Z,16.80
2018-04-11T13:13:38.783Z,16.80
2018-04-11T13:17:42.209Z,16.70
2018-04-11T13:21:44.916Z,16.60
2018-04-11T13:25:48.296Z,16.50
2018-04-11T13:29:50.944Z,16.40
2018-04-11T13:33:53.624Z,16.30
2018-04-11T13:37:56.625Z,16.30
2018-04-11T13:41:59.360Z,16.20
2018-04-11T13:46:02.048Z,16.20
2018-04-11T13:50:04.694Z,16.20
2018-04-11T13:54:07.345Z,16.20
2018-04-11T13:58:09.992Z,16.30
2018-04-11T14:02:12.592Z,16.30
2018-04-11T14:06:16.193Z,16.30
2018-04-11T14:10:19.621Z,16.30
2018-04-11T14:14:22.297Z,16.20
2018-04-11T14:18:24.963Z,16.20
2018-04-11T14:22:27.578Z,16.10
2018-04-11T14:26:30.229Z,16.00
2018-04-11T14:30:32.900Z,16.00
2018-04-11T14:34:36.358Z,16.00
2018-04-11T14:38:39.028Z,16.00
2018-04-11T14:42:42.407Z,16.20
2018-04-11T14:46:45.069Z,16.10
2018-04-11T14:50:47.793Z,16.20
2018-04-11T14:54:50.508Z,16.20
2018-04-11T14:58:53.948Z,16.20
2018-04-11T15:02:56.557Z,16.20
2018-04-11T15:06:59.208Z,16.20
2018-04-11T15:11:01.865Z,16.20
2018-04-11T15:15:04.527Z,16.10
2018-04-11T15:19:07.191Z,16.20
2018-04-11T15:23:09.858Z,16.20
2018-04-11T15:27:13.339Z,16.20
2018-04-11T15:31:15.991Z,16.20
2018-04-11T15:35:18.652Z,16.20
2018-04-11T15:39:21.260Z,16.20
2018-04-11T15:43:23.954Z,16.20
2018-04-11T15:47:26.579Z,16.20
2018-04-11T15:51:29.273Z,16.30
2018-04-11T15:55:31.931Z,16.30
2018-04-11T15:59:35.304Z,16.30
2018-04-11T16:03:37.964Z,16.30
2018-04-11T16:07:41.385Z,16.40
2018-04-11T16:11:44.803Z,16.40
2018-04-11T16:15:47.457Z,16.30
2018-04-11T16:19:50.060Z,16.30
2018-04-11T16:23:53.476Z,16.30
2018-04-11T16:27:56.128Z,16.20
2018-04-11T16:31:58.775Z,16.30
2018-04-11T16:36:01.376Z,16.30
2018-04-11T16:40:04.787Z,16.20
2018-04-11T16:44:07.438Z,16.20
2018-04-11T16:48:10.092Z,16.20
2018-04-11T16:52:12.784Z,16.20
2018-04-11T16:56:15.423Z,16.20
2018-04-11T17:00:18.076Z,16.10
2018-04-11T17:04:21.512Z,16.20
2018-04-11T17:08:24.162Z,16.10
2018-04-11T17:12:26.812Z,16.20
2018-04-11T17:16:29.416Z,16.10
2018-04-11T17:20:43.968Z,16.10
2018-04-11T17:24:58.332Z,16.10
2018-04-11T17:29:12.738Z,16.10
2018-04-11T17:33:16.151Z,16.00
2018-04-11T17:37:19.533Z,16.00
2018-04-11T17:41:22.185Z,15.90
2018-04-11T17:45:24.843Z,15.90
2018-04-11T17:49:28.265Z,15.80
2018-04-11T17:53:30.875Z,15.80
2018-04-11T17:57:33.524Z,15.70
2018-04-11T18:01:36.935Z,15.50
2018-04-11T18:05:39.593Z,15.50
2018-04-11T18:09:42.243Z,15.50
2018-04-11T18:13:44.843Z,15.40
2018-04-11T18:17:47.549Z,15.30
2018-04-11T18:21:50.200Z,15.20
2018-04-11T18:25:52.855Z,15.20
2018-04-11T18:29:56.332Z,15.00
2018-04-11T18:33:58.944Z,15.00
2018-04-11T18:38:02.372Z,14.90
2018-04-11T18:42:05.029Z,14.90
2018-04-11T18:46:07.678Z,14.80
2018-04-11T18:50:10.293Z,14.70
2018-04-11T18:54:12.947Z,14.70
2018-04-11T18:58:15.693Z,14.60
2018-04-11T19:02:19.174Z,14.50
2018-04-11T19:06:21.888Z,14.40
2018-04-11T19:10:25.270Z,14.30
2018-04-11T19:14:27.920Z,14.30
2018-04-11T19:18:30.597Z,14.20
2018-04-11T19:22:33.249Z,14.00
2018-04-11T19:26:36.746Z,13.90
2018-04-11T19:30:39.403Z,13.90
2018-04-11T19:34:42.091Z,13.80
2018-04-11T19:38:44.760Z,13.70
2018-04-11T19:42:47.425Z,13.60
2018-04-11T19:46:50.860Z,13.30
2018-04-11T19:50:53.480Z,13.30
2018-04-11T19:54:56.358Z,13.20
2018-04-11T19:58:59.022Z,13.10
2018-04-11T20:03:01.681Z,13.00
2018-04-11T20:07:04.314Z,12.90
2018-04-11T20:11:07.022Z,12.80
2018-04-11T20:15:09.677Z,12.70
2018-04-11T20:19:12.384Z,12.60
2018-04-11T20:23:15.818Z,12.40
2018-04-11T20:27:18.432Z,12.40
2018-04-11T20:31:21.867Z,12.30
2018-04-11T20:35:24.527Z,12.20
2018-04-11T20:39:27.185Z,12.20
2018-04-11T20:43:29.863Z,12.20
2018-04-11T20:47:32.500Z,12.10
2018-04-11T20:51:35.968Z,12.10
2018-04-11T20:55:38.727Z,12.00
2018-04-11T20:59:41.392Z,12.00
2018-04-11T21:03:44.834Z,12.00
2018-04-11T21:07:47.480Z,11.90
2018-04-11T21:11:50.917Z,11.90
2018-04-11T21:15:53.579Z,11.80
2018-04-11T21:19:56.236Z,11.80
2018-04-11T21:23:58.855Z,11.80
2018-04-11T21:28:02.297Z,11.60
2018-04-11T21:32:04.956Z,11.50
2018-04-11T21:36:08.392Z,11.40
2018-04-11T21:40:11.048Z,11.30
2018-04-11T21:44:13.669Z,11.30
2018-04-11T21:48:16.330Z,11.20
2018-04-11T21:52:19.756Z,11.20
2018-04-11T21:56:22.411Z,11.20
2018-04-11T22:00:25.061Z,11.20
2018-04-11T22:04:27.739Z,11.20
2018-04-11T22:08:30.397Z,11.20
2018-04-11T22:12:33.819Z,11.10
2018-04-11T22:16:36.499Z,11.00
2018-04-11T22:20:39.166Z,11.10
2018-04-11T22:24:41.808Z,11.00
2018-04-11T22:28:44.496Z,11.00
2018-04-11T22:32:47.168Z,11.00
2018-04-11T22:36:49.887Z,11.00
2018-04-11T22:40:53.305Z,11.00
2018-04-11T22:44:55.958Z,11.00
2018-04-11T22:48:58.620Z,11.00
2018-04-11T22:53:02.040Z,11.00
2018-04-11T22:57:04.695Z,10.90
2018-04-11T23:01:07.318Z,10.90
2018-04-11T23:05:09.982Z,10.90
2018-04-11T23:09:13.395Z,10.90
2018-04-11T23:13:16.055Z,10.80
2018-04-11T23:17:18.720Z,10.80
2018-04-11T23:21:21.332Z,10.70
2018-04-11T23:25:23.980Z,10.70
2018-04-11T23:29:26.681Z,10.60
2018-04-11T23:33:29.390Z,10.60
2018-04-11T23:37:32.060Z,10.60
2018-04-11T23:41:34.673Z,10.50
2018-04-11T23:45:37.331Z,10.50
2018-04-11T23:49:40.025Z,10.50
2018-04-11T23:53:42.736Z,10.40
2018-04-11T23:57:45.586Z,10.40
